sensor_id;sensor_type;location;lat;lon;timestamp;P1;durP1;ratioP1;P2;durP2;ratioP2
76863;SDS011;65834;52.364;9.754;2023-09-19T00:01:51;6.35;;;1.88;;
76863;SDS011;65834;52.364;9.754;2023-09-19T00:04:23;6.70;;;2.00;;
76863;SDS011;65834;52.364;9.754;2023-09-19T00:06:55;4.10;;;1.95;;
76863;SDS011;65834;52.364;9.754;2023-09-19T00:09:25;3.22;;;1.67;;
76863;SDS011;65834;52.364;9.754;2023-09-19T00:11:57;5.57;;;2.25;;
76863;SDS011;65834;52.364;9.754;2023-09-19T00:14:31;5.05;;;1.80;;
76863;SDS011;65834;52.364;9.754;2023-09-19T00:17:02;5.10;;;2.05;;
76863;SDS011;65834;52.364;9.754;2023-09-19T00:19:35;6.13;;;2.03;;
76863;SDS011;65834;52.364;9.754;2023-09-19T00:22:05;6.10;;;2.28;;
76863;SDS011;65834;52.364;9.754;2023-09-19T00:24:34;5.38;;;2.05;;
76863;SDS011;65834;52.364;9.754;2023-09-19T00:27:07;4.13;;;1.70;;
76863;SDS011;65834;52.364;9.754;2023-09-19T00:29:36;4.43;;;2.00;;
76863;SDS011;65834;52.364;9.754;2023-09-19T00:32:06;6.60;;;2.20;;
76863;SDS011;65834;52.364;9.754;2023-09-19T00:34:36;5.35;;;2.00;;
76863;SDS011;65834;52.364;9.754;2023-09-19T00:37:06;5.32;;;2.30;;
76863;SDS011;65834;52.364;9.754;2023-09-19T00:39:37;5.55;;;2.53;;
76863;SDS011;65834;52.364;9.754;2023-09-19T00:42:10;7.35;;;2.35;;
76863;SDS011;65834;52.364;9.754;2023-09-19T00:44:47;7.25;;;2.63;;
76863;SDS011;65834;52.364;9.754;2023-09-19T00:47:18;5.38;;;2.47;;
76863;SDS011;65834;52.364;9.754;2023-09-19T00:49:48;11.07;;;2.85;;
76863;SDS011;65834;52.364;9.754;2023-09-19T00:52:19;6.15;;;2.30;;
76863;SDS011;65834;52.364;9.754;2023-09-19T00:54:50;10.13;;;2.63;;
76863;SDS011;65834;52.364;9.754;2023-09-19T00:57:23;6.70;;;2.50;;
76863;SDS011;65834;52.364;9.754;2023-09-19T00:59:53;6.70;;;2.47;;
76863;SDS011;65834;52.364;9.754;2023-09-19T01:02:24;4.80;;;2.30;;
76863;SDS011;65834;52.364;9.754;2023-09-19T01:05:00;6.93;;;2.60;;
76863;SDS011;65834;52.364;9.754;2023-09-19T01:07:31;8.73;;;2.92;;
76863;SDS011;65834;52.364;9.754;2023-09-19T01:10:02;7.45;;;2.47;;
76863;SDS011;65834;52.364;9.754;2023-09-19T01:12:41;6.50;;;2.70;;
76863;SDS011;65834;52.364;9.754;2023-09-19T01:15:20;8.30;;;3.10;;
76863;SDS011;65834;52.364;9.754;2023-09-19T01:18:03;5.80;;;2.60;;
76863;SDS011;65834;52.364;9.754;2023-09-19T01:20:44;6.85;;;2.80;;
76863;SDS011;65834;52.364;9.754;2023-09-19T01:23:23;8.77;;;3.10;;
76863;SDS011;65834;52.364;9.754;2023-09-19T01:26:06;9.52;;;2.92;;
76863;SDS011;65834;52.364;9.754;2023-09-19T01:28:55;9.07;;;2.90;;
76863;SDS011;65834;52.364;9.754;2023-09-19T01:31:43;8.88;;;3.30;;
76863;SDS011;65834;52.364;9.754;2023-09-19T01:34:15;10.35;;;3.42;;
76863;SDS011;65834;52.364;9.754;2023-09-19T01:36:45;10.30;;;3.92;;
76863;SDS011;65834;52.364;9.754;2023-09-19T01:39:15;9.80;;;3.42;;
76863;SDS011;65834;52.364;9.754;2023-09-19T01:41:54;8.75;;;3.03;;
76863;SDS011;65834;52.364;9.754;2023-09-19T01:44:38;13.13;;;3.67;;
76863;SDS011;65834;52.364;9.754;2023-09-19T01:47:26;7.15;;;2.97;;
76863;SDS011;65834;52.364;9.754;2023-09-19T01:50:03;9.82;;;3.85;;
76863;SDS011;65834;52.364;9.754;2023-09-19T01:52:43;11.20;;;3.58;;
76863;SDS011;65834;52.364;9.754;2023-09-19T01:55:17;8.73;;;3.40;;
76863;SDS011;65834;52.364;9.754;2023-09-19T01:57:51;9.18;;;3.60;;
76863;SDS011;65834;52.364;9.754;2023-09-19T02:00:34;10.80;;;4.05;;
76863;SDS011;65834;52.364;9.754;2023-09-19T02:03:09;9.77;;;3.80;;
76863;SDS011;65834;52.364;9.754;2023-09-19T02:05:41;9.88;;;3.97;;
76863;SDS011;65834;52.364;9.754;2023-09-19T02:08:11;9.13;;;3.72;;
76863;SDS011;65834;52.364;9.754;2023-09-19T02:10:42;9.35;;;3.55;;
76863;SDS011;65834;52.364;9.754;2023-09-19T02:13:12;10.30;;;3.97;;
76863;SDS011;65834;52.364;9.754;2023-09-19T02:15:49;9.77;;;3.85;;
76863;SDS011;65834;52.364;9.754;2023-09-19T02:18:25;9.75;;;3.58;;
76863;SDS011;65834;52.364;9.754;2023-09-19T02:20:55;9.48;;;3.80;;
76863;SDS011;65834;52.364;9.754;2023-09-19T02:23:25;10.70;;;3.58;;
76863;SDS011;65834;52.364;9.754;2023-09-19T02:25:56;10.25;;;4.18;;
76863;SDS011;65834;52.364;9.754;2023-09-19T02:28:27;9.00;;;4.18;;
76863;SDS011;65834;52.364;9.754;2023-09-19T02:30:58;11.23;;;3.55;;
76863;SDS011;65834;52.364;9.754;2023-09-19T02:33:31;10.57;;;4.47;;
76863;SDS011;65834;52.364;9.754;2023-09-19T02:36:02;9.68;;;3.88;;
76863;SDS011;65834;52.364;9.754;2023-09-19T02:38:32;11.82;;;3.95;;
76863;SDS011;65834;52.364;9.754;2023-09-19T02:41:05;8.75;;;3.50;;
76863;SDS011;65834;52.364;9.754;2023-09-19T02:43:36;11.30;;;3.97;;
76863;SDS011;65834;52.364;9.754;2023-09-19T02:46:06;11.18;;;4.07;;
76863;SDS011;65834;52.364;9.754;2023-09-19T02:48:41;9.77;;;3.80;;
76863;SDS011;65834;52.364;9.754;2023-09-19T02:51:11;13.75;;;4.25;;
76863;SDS011;65834;52.364;9.754;2023-09-19T02:53:40;9.85;;;3.72;;
76863;SDS011;65834;52.364;9.754;2023-09-19T02:56:10;9.48;;;3.92;;
76863;SDS011;65834;52.364;9.754;2023-09-19T02:58:41;12.38;;;4.28;;
76863;SDS011;65834;52.364;9.754;2023-09-19T03:01:11;9.30;;;4.22;;
76863;SDS011;65834;52.364;9.754;2023-09-19T03:03:44;8.95;;;4.22;;
76863;SDS011;65834;52.364;9.754;2023-09-19T03:06:14;11.38;;;4.03;;
76863;SDS011;65834;52.364;9.754;2023-09-19T03:08:45;9.80;;;4.43;;
76863;SDS011;65834;52.364;9.754;2023-09-19T03:11:15;11.25;;;4.65;;
76863;SDS011;65834;52.364;9.754;2023-09-19T03:13:51;9.32;;;3.95;;
76863;SDS011;65834;52.364;9.754;2023-09-19T03:16:22;8.63;;;3.77;;
76863;SDS011;65834;52.364;9.754;2023-09-19T03:18:58;11.43;;;4.22;;
76863;SDS011;65834;52.364;9.754;2023-09-19T03:21:30;10.32;;;4.03;;
76863;SDS011;65834;52.364;9.754;2023-09-19T03:24:01;11.43;;;3.75;;
76863;SDS011;65834;52.364;9.754;2023-09-19T03:26:32;10.98;;;4.60;;
76863;SDS011;65834;52.364;9.754;2023-09-19T03:29:03;8.48;;;3.45;;
76863;SDS011;65834;52.364;9.754;2023-09-19T03:31:37;12.25;;;3.63;;
76863;SDS011;65834;52.364;9.754;2023-09-19T03:34:10;9.65;;;3.60;;
76863;SDS011;65834;52.364;9.754;2023-09-19T03:36:40;10.57;;;3.33;;
76863;SDS011;65834;52.364;9.754;2023-09-19T03:39:10;7.75;;;3.00;;
76863;SDS011;65834;52.364;9.754;2023-09-19T03:41:42;14.68;;;3.75;;
76863;SDS011;65834;52.364;9.754;2023-09-19T03:44:12;10.68;;;3.00;;
76863;SDS011;65834;52.364;9.754;2023-09-19T03:46:42;8.60;;;2.97;;
76863;SDS011;65834;52.364;9.754;2023-09-19T03:49:14;10.02;;;3.05;;
76863;SDS011;65834;52.364;9.754;2023-09-19T03:51:44;10.55;;;3.00;;
76863;SDS011;65834;52.364;9.754;2023-09-19T03:54:13;11.52;;;3.00;;
76863;SDS011;65834;52.364;9.754;2023-09-19T03:56:43;9.30;;;3.03;;
76863;SDS011;65834;52.364;9.754;2023-09-19T03:59:13;8.18;;;2.47;;
76863;SDS011;65834;52.364;9.754;2023-09-19T04:01:42;12.40;;;3.03;;
76863;SDS011;65834;52.364;9.754;2023-09-19T04:04:15;13.90;;;3.17;;
76863;SDS011;65834;52.364;9.754;2023-09-19T04:06:45;10.13;;;2.80;;
76863;SDS011;65834;52.364;9.754;2023-09-19T04:09:15;11.00;;;2.88;;
76863;SDS011;65834;52.364;9.754;2023-09-19T04:11:45;8.07;;;3.00;;
76863;SDS011;65834;52.364;9.754;2023-09-19T04:14:17;11.65;;;3.03;;
76863;SDS011;65834;52.364;9.754;2023-09-19T04:16:46;11.10;;;2.60;;
76863;SDS011;65834;52.364;9.754;2023-09-19T04:19:19;7.93;;;2.85;;
76863;SDS011;65834;52.364;9.754;2023-09-19T04:21:49;9.05;;;2.80;;
76863;SDS011;65834;52.364;9.754;2023-09-19T04:24:19;14.98;;;3.70;;
76863;SDS011;65834;52.364;9.754;2023-09-19T04:26:48;10.18;;;3.15;;
76863;SDS011;65834;52.364;9.754;2023-09-19T04:29:19;8.75;;;3.17;;
76863;SDS011;65834;52.364;9.754;2023-09-19T04:31:48;11.73;;;3.30;;
76863;SDS011;65834;52.364;9.754;2023-09-19T04:34:21;10.40;;;3.00;;
76863;SDS011;65834;52.364;9.754;2023-09-19T04:36:51;9.02;;;3.55;;
76863;SDS011;65834;52.364;9.754;2023-09-19T04:39:22;9.40;;;2.78;;
76863;SDS011;65834;52.364;9.754;2023-09-19T04:41:53;10.48;;;3.10;;
76863;SDS011;65834;52.364;9.754;2023-09-19T04:44:23;9.85;;;2.95;;
76863;SDS011;65834;52.364;9.754;2023-09-19T04:46:53;10.05;;;3.33;;
76863;SDS011;65834;52.364;9.754;2023-09-19T04:49:26;12.88;;;3.45;;
76863;SDS011;65834;52.364;9.754;2023-09-19T04:51:55;10.30;;;3.40;;
76863;SDS011;65834;52.364;9.754;2023-09-19T04:56:57;11.57;;;3.38;;
76863;SDS011;65834;52.364;9.754;2023-09-19T04:59:27;14.02;;;3.78;;
76863;SDS011;65834;52.364;9.754;2023-09-19T05:01:58;12.10;;;4.25;;
76863;SDS011;65834;52.364;9.754;2023-09-19T05:04:31;10.25;;;3.88;;
76863;SDS011;65834;52.364;9.754;2023-09-19T05:09:30;11.00;;;4.25;;
76863;SDS011;65834;52.364;9.754;2023-09-19T05:12:01;13.82;;;4.50;;
76863;SDS011;65834;52.364;9.754;2023-09-19T05:14:30;14.32;;;4.85;;
76863;SDS011;65834;52.364;9.754;2023-09-19T05:17:00;12.32;;;4.75;;
76863;SDS011;65834;52.364;9.754;2023-09-19T05:19:33;15.50;;;5.32;;
76863;SDS011;65834;52.364;9.754;2023-09-19T05:22:03;13.48;;;4.68;;
76863;SDS011;65834;52.364;9.754;2023-09-19T05:24:33;13.93;;;5.10;;
76863;SDS011;65834;52.364;9.754;2023-09-19T05:27:03;13.38;;;5.47;;
76863;SDS011;65834;52.364;9.754;2023-09-19T05:29:33;14.27;;;5.55;;
76863;SDS011;65834;52.364;9.754;2023-09-19T05:32:04;9.85;;;4.38;;
76863;SDS011;65834;52.364;9.754;2023-09-19T05:34:37;13.65;;;5.10;;
76863;SDS011;65834;52.364;9.754;2023-09-19T05:37:07;13.93;;;4.68;;
76863;SDS011;65834;52.364;9.754;2023-09-19T05:39:36;14.77;;;4.82;;
76863;SDS011;65834;52.364;9.754;2023-09-19T05:42:06;13.60;;;4.60;;
76863;SDS011;65834;52.364;9.754;2023-09-19T05:44:36;12.15;;;4.88;;
76863;SDS011;65834;52.364;9.754;2023-09-19T05:47:06;11.23;;;4.72;;
76863;SDS011;65834;52.364;9.754;2023-09-19T05:49:39;12.25;;;4.75;;
76863;SDS011;65834;52.364;9.754;2023-09-19T05:52:09;14.98;;;5.05;;
76863;SDS011;65834;52.364;9.754;2023-09-19T05:54:38;16.38;;;4.65;;
76863;SDS011;65834;52.364;9.754;2023-09-19T05:57:09;11.80;;;5.10;;
76863;SDS011;65834;52.364;9.754;2023-09-19T05:59:39;13.60;;;6.03;;
76863;SDS011;65834;52.364;9.754;2023-09-19T06:02:09;12.60;;;4.50;;
76863;SDS011;65834;52.364;9.754;2023-09-19T06:04:41;12.35;;;4.55;;
76863;SDS011;65834;52.364;9.754;2023-09-19T06:07:11;13.75;;;5.20;;
76863;SDS011;65834;52.364;9.754;2023-09-19T06:09:43;14.23;;;4.97;;
76863;SDS011;65834;52.364;9.754;2023-09-19T06:12:12;12.13;;;4.18;;
76863;SDS011;65834;52.364;9.754;2023-09-19T06:14:42;12.23;;;4.55;;
76863;SDS011;65834;52.364;9.754;2023-09-19T06:17:12;13.02;;;4.72;;
76863;SDS011;65834;52.364;9.754;2023-09-19T06:19:46;17.90;;;6.05;;
76863;SDS011;65834;52.364;9.754;2023-09-19T06:22:17;11.90;;;4.32;;
76863;SDS011;65834;52.364;9.754;2023-09-19T06:24:47;12.10;;;4.93;;
76863;SDS011;65834;52.364;9.754;2023-09-19T06:27:16;14.00;;;4.57;;
76863;SDS011;65834;52.364;9.754;2023-09-19T06:29:46;17.75;;;5.18;;
76863;SDS011;65834;52.364;9.754;2023-09-19T06:32:15;11.98;;;4.43;;
76863;SDS011;65834;52.364;9.754;2023-09-19T06:34:54;13.98;;;4.90;;
76863;SDS011;65834;52.364;9.754;2023-09-19T06:37:26;12.85;;;5.00;;
76863;SDS011;65834;52.364;9.754;2023-09-19T06:39:56;13.32;;;4.28;;
76863;SDS011;65834;52.364;9.754;2023-09-19T06:42:26;15.13;;;4.68;;
76863;SDS011;65834;52.364;9.754;2023-09-19T06:44:56;15.77;;;5.15;;
76863;SDS011;65834;52.364;9.754;2023-09-19T06:47:27;12.45;;;4.35;;
76863;SDS011;65834;52.364;9.754;2023-09-19T06:49:59;9.98;;;3.95;;
76863;SDS011;65834;52.364;9.754;2023-09-19T06:52:29;12.15;;;4.60;;
76863;SDS011;65834;52.364;9.754;2023-09-19T06:54:59;13.13;;;4.15;;
76863;SDS011;65834;52.364;9.754;2023-09-19T06:57:33;12.45;;;3.90;;
76863;SDS011;65834;52.364;9.754;2023-09-19T07:00:02;14.15;;;4.45;;
76863;SDS011;65834;52.364;9.754;2023-09-19T07:02:36;8.95;;;3.35;;
76863;SDS011;65834;52.364;9.754;2023-09-19T07:05:10;13.80;;;4.00;;
76863;SDS011;65834;52.364;9.754;2023-09-19T07:07:39;9.27;;;3.35;;
76863;SDS011;65834;52.364;9.754;2023-09-19T07:10:10;12.90;;;3.10;;
76863;SDS011;65834;52.364;9.754;2023-09-19T07:12:40;13.88;;;3.28;;
76863;SDS011;65834;52.364;9.754;2023-09-19T07:15:10;10.23;;;2.97;;
76863;SDS011;65834;52.364;9.754;2023-09-19T07:17:40;12.25;;;2.75;;
76863;SDS011;65834;52.364;9.754;2023-09-19T07:20:12;8.82;;;2.75;;
76863;SDS011;65834;52.364;9.754;2023-09-19T07:22:42;8.32;;;2.40;;
76863;SDS011;65834;52.364;9.754;2023-09-19T07:25:12;10.07;;;2.30;;
76863;SDS011;65834;52.364;9.754;2023-09-19T07:27:42;11.63;;;2.65;;
76863;SDS011;65834;52.364;9.754;2023-09-19T07:30:12;12.45;;;2.20;;
76863;SDS011;65834;52.364;9.754;2023-09-19T07:32:43;9.20;;;2.33;;
76863;SDS011;65834;52.364;9.754;2023-09-19T07:35:15;12.63;;;2.33;;
76863;SDS011;65834;52.364;9.754;2023-09-19T07:37:46;10.27;;;2.20;;
76863;SDS011;65834;52.364;9.754;2023-09-19T07:40:18;9.02;;;2.08;;
76863;SDS011;65834;52.364;9.754;2023-09-19T07:42:51;9.30;;;2.50;;
76863;SDS011;65834;52.364;9.754;2023-09-19T07:45:20;13.10;;;2.33;;
76863;SDS011;65834;52.364;9.754;2023-09-19T07:47:51;11.63;;;2.28;;
76863;SDS011;65834;52.364;9.754;2023-09-19T07:50:24;14.25;;;2.83;;
76863;SDS011;65834;52.364;9.754;2023-09-19T07:52:55;9.55;;;1.85;;
76863;SDS011;65834;52.364;9.754;2023-09-19T07:55:25;12.23;;;2.30;;
76863;SDS011;65834;52.364;9.754;2023-09-19T07:57:55;12.75;;;2.35;;
76863;SDS011;65834;52.364;9.754;2023-09-19T08:02:59;9.63;;;1.73;;
76863;SDS011;65834;52.364;9.754;2023-09-19T08:05:45;7.50;;;1.80;;
76863;SDS011;65834;52.364;9.754;2023-09-19T08:08:15;9.68;;;2.08;;
76863;SDS011;65834;52.364;9.754;2023-09-19T08:10:45;9.02;;;2.00;;
76863;SDS011;65834;52.364;9.754;2023-09-19T08:13:15;7.78;;;1.90;;
76863;SDS011;65834;52.364;9.754;2023-09-19T08:15:45;11.93;;;2.28;;
76863;SDS011;65834;52.364;9.754;2023-09-19T08:18:16;8.52;;;2.13;;
76863;SDS011;65834;52.364;9.754;2023-09-19T08:20:52;9.60;;;1.90;;
76863;SDS011;65834;52.364;9.754;2023-09-19T08:23:24;10.55;;;2.17;;
76863;SDS011;65834;52.364;9.754;2023-09-19T08:25:56;8.70;;;1.88;;
76863;SDS011;65834;52.364;9.754;2023-09-19T08:28:29;12.25;;;3.28;;
76863;SDS011;65834;52.364;9.754;2023-09-19T08:31:03;10.70;;;2.67;;
76863;SDS011;65834;52.364;9.754;2023-09-19T08:33:34;7.90;;;2.00;;
76863;SDS011;65834;52.364;9.754;2023-09-19T08:36:07;10.20;;;2.08;;
76863;SDS011;65834;52.364;9.754;2023-09-19T08:38:40;9.73;;;1.75;;
76863;SDS011;65834;52.364;9.754;2023-09-19T08:41:10;9.82;;;2.08;;
76863;SDS011;65834;52.364;9.754;2023-09-19T08:43:52;7.13;;;1.85;;
76863;SDS011;65834;52.364;9.754;2023-09-19T08:46:22;11.15;;;2.28;;
76863;SDS011;65834;52.364;9.754;2023-09-19T08:48:57;6.47;;;1.70;;
76863;SDS011;65834;52.364;9.754;2023-09-19T08:51:41;8.07;;;1.65;;
76863;SDS011;65834;52.364;9.754;2023-09-19T08:54:19;9.00;;;1.70;;
76863;SDS011;65834;52.364;9.754;2023-09-19T08:56:54;9.63;;;1.75;;
76863;SDS011;65834;52.364;9.754;2023-09-19T08:59:25;9.68;;;1.95;;
76863;SDS011;65834;52.364;9.754;2023-09-19T09:01:55;9.80;;;1.67;;
76863;SDS011;65834;52.364;9.754;2023-09-19T09:04:27;10.48;;;2.28;;
76863;SDS011;65834;52.364;9.754;2023-09-19T09:07:00;7.68;;;1.98;;
76863;SDS011;65834;52.364;9.754;2023-09-19T09:09:30;7.78;;;2.17;;
76863;SDS011;65834;52.364;9.754;2023-09-19T09:12:00;7.80;;;2.03;;
76863;SDS011;65834;52.364;9.754;2023-09-19T09:14:31;12.15;;;2.67;;
76863;SDS011;65834;52.364;9.754;2023-09-19T09:17:01;14.75;;;3.33;;
76863;SDS011;65834;52.364;9.754;2023-09-19T09:19:31;10.27;;;2.25;;
76863;SDS011;65834;52.364;9.754;2023-09-19T09:22:12;8.80;;;1.98;;
76863;SDS011;65834;52.364;9.754;2023-09-19T09:24:51;9.68;;;2.10;;
76863;SDS011;65834;52.364;9.754;2023-09-19T09:27:21;12.30;;;2.20;;
76863;SDS011;65834;52.364;9.754;2023-09-19T09:29:51;6.63;;;1.90;;
76863;SDS011;65834;52.364;9.754;2023-09-19T09:32:22;11.15;;;1.98;;
76863;SDS011;65834;52.364;9.754;2023-09-19T09:34:55;7.88;;;1.63;;
76863;SDS011;65834;52.364;9.754;2023-09-19T09:37:30;11.20;;;2.28;;
76863;SDS011;65834;52.364;9.754;2023-09-19T09:40:00;6.78;;;1.75;;
76863;SDS011;65834;52.364;9.754;2023-09-19T09:42:46;6.18;;;1.77;;
76863;SDS011;65834;52.364;9.754;2023-09-19T09:45:30;11.60;;;1.92;;
76863;SDS011;65834;52.364;9.754;2023-09-19T09:48:15;9.05;;;2.20;;
76863;SDS011;65834;52.364;9.754;2023-09-19T09:50:46;9.07;;;2.13;;
76863;SDS011;65834;52.364;9.754;2023-09-19T09:53:25;8.38;;;1.80;;
76863;SDS011;65834;52.364;9.754;2023-09-19T09:56:01;8.43;;;2.03;;
76863;SDS011;65834;52.364;9.754;2023-09-19T09:58:33;7.53;;;1.83;;
76863;SDS011;65834;52.364;9.754;2023-09-19T10:01:04;10.32;;;2.22;;
76863;SDS011;65834;52.364;9.754;2023-09-19T10:03:42;7.60;;;1.85;;
76863;SDS011;65834;52.364;9.754;2023-09-19T10:06:15;8.30;;;1.92;;
76863;SDS011;65834;52.364;9.754;2023-09-19T10:09:01;7.70;;;1.83;;
76863;SDS011;65834;52.364;9.754;2023-09-19T10:11:42;9.38;;;1.85;;
76863;SDS011;65834;52.364;9.754;2023-09-19T10:14:12;7.88;;;1.95;;
76863;SDS011;65834;52.364;9.754;2023-09-19T10:16:46;10.50;;;2.05;;
76863;SDS011;65834;52.364;9.754;2023-09-19T10:19:20;6.70;;;1.80;;
76863;SDS011;65834;52.364;9.754;2023-09-19T10:21:53;7.32;;;1.73;;
76863;SDS011;65834;52.364;9.754;2023-09-19T10:24:27;10.90;;;2.22;;
76863;SDS011;65834;52.364;9.754;2023-09-19T10:26:59;7.63;;;1.85;;
76863;SDS011;65834;52.364;9.754;2023-09-19T10:29:31;10.35;;;2.10;;
76863;SDS011;65834;52.364;9.754;2023-09-19T10:32:03;10.25;;;1.77;;
76863;SDS011;65834;52.364;9.754;2023-09-19T10:34:35;9.63;;;1.73;;
76863;SDS011;65834;52.364;9.754;2023-09-19T10:37:08;8.27;;;2.17;;
76863;SDS011;65834;52.364;9.754;2023-09-19T10:39:44;10.40;;;1.95;;
76863;SDS011;65834;52.364;9.754;2023-09-19T10:42:16;9.27;;;2.08;;
76863;SDS011;65834;52.364;9.754;2023-09-19T10:44:50;9.70;;;2.15;;
76863;SDS011;65834;52.364;9.754;2023-09-19T10:47:22;9.75;;;2.10;;
76863;SDS011;65834;52.364;9.754;2023-09-19T10:49:52;8.98;;;2.53;;
76863;SDS011;65834;52.364;9.754;2023-09-19T10:52:23;7.85;;;2.28;;
76863;SDS011;65834;52.364;9.754;2023-09-19T10:54:58;9.70;;;2.10;;
76863;SDS011;65834;52.364;9.754;2023-09-19T10:57:29;9.27;;;2.30;;
76863;SDS011;65834;52.364;9.754;2023-09-19T11:00:02;9.98;;;2.00;;
76863;SDS011;65834;52.364;9.754;2023-09-19T11:06:00;6.00;;;1.55;;
76863;SDS011;65834;52.364;9.754;2023-09-19T11:08:52;10.93;;;2.22;;
76863;SDS011;65834;52.364;9.754;2023-09-19T11:11:42;12.07;;;2.45;;
76863;SDS011;65834;52.364;9.754;2023-09-19T11:14:29;10.00;;;2.35;;
76863;SDS011;65834;52.364;9.754;2023-09-19T11:23:18;8.50;;;2.00;;
76863;SDS011;65834;52.364;9.754;2023-09-19T11:25:51;9.55;;;2.05;;
76863;SDS011;65834;52.364;9.754;2023-09-19T11:28:30;11.23;;;2.13;;
76863;SDS011;65834;52.364;9.754;2023-09-19T11:40:37;8.40;;;2.28;;
76863;SDS011;65834;52.364;9.754;2023-09-19T11:46:05;9.50;;;1.90;;
76863;SDS011;65834;52.364;9.754;2023-09-19T11:48:35;9.05;;;1.73;;
76863;SDS011;65834;52.364;9.754;2023-09-19T11:51:10;9.82;;;2.00;;
76863;SDS011;65834;52.364;9.754;2023-09-19T11:53:46;9.90;;;2.03;;
76863;SDS011;65834;52.364;9.754;2023-09-19T11:56:19;4.90;;;1.98;;
76863;SDS011;65834;52.364;9.754;2023-09-19T11:58:53;10.60;;;2.40;;
76863;SDS011;65834;52.364;9.754;2023-09-19T12:01:26;10.52;;;2.42;;
76863;SDS011;65834;52.364;9.754;2023-09-19T12:04:00;10.25;;;2.17;;
76863;SDS011;65834;52.364;9.754;2023-09-19T12:06:31;7.85;;;2.00;;
76863;SDS011;65834;52.364;9.754;2023-09-19T12:09:02;10.50;;;2.25;;
76863;SDS011;65834;52.364;9.754;2023-09-19T12:11:40;10.40;;;2.10;;
76863;SDS011;65834;52.364;9.754;2023-09-19T12:14:13;8.18;;;2.13;;
76863;SDS011;65834;52.364;9.754;2023-09-19T12:16:55;10.55;;;2.47;;
76863;SDS011;65834;52.364;9.754;2023-09-19T12:19:28;10.55;;;2.05;;
76863;SDS011;65834;52.364;9.754;2023-09-19T12:21:58;9.48;;;2.47;;
76863;SDS011;65834;52.364;9.754;2023-09-19T12:24:31;19.02;;;2.78;;
76863;SDS011;65834;52.364;9.754;2023-09-19T12:27:05;8.50;;;2.10;;
76863;SDS011;65834;52.364;9.754;2023-09-19T12:29:45;10.15;;;1.90;;
76863;SDS011;65834;52.364;9.754;2023-09-19T12:32:16;9.10;;;2.13;;
76863;SDS011;65834;52.364;9.754;2023-09-19T12:34:51;9.43;;;2.25;;
76863;SDS011;65834;52.364;9.754;2023-09-19T12:37:22;10.68;;;2.20;;
76863;SDS011;65834;52.364;9.754;2023-09-19T12:40:03;7.60;;;2.05;;
76863;SDS011;65834;52.364;9.754;2023-09-19T12:42:42;10.70;;;2.17;;
76863;SDS011;65834;52.364;9.754;2023-09-19T12:45:15;8.27;;;1.95;;
76863;SDS011;65834;52.364;9.754;2023-09-19T12:51:00;10.77;;;2.28;;
76863;SDS011;65834;52.364;9.754;2023-09-19T12:53:35;9.23;;;2.20;;
76863;SDS011;65834;52.364;9.754;2023-09-19T12:56:11;8.80;;;2.30;;
76863;SDS011;65834;52.364;9.754;2023-09-19T12:58:49;9.40;;;2.40;;
76863;SDS011;65834;52.364;9.754;2023-09-19T13:01:24;10.05;;;2.40;;
76863;SDS011;65834;52.364;9.754;2023-09-19T13:04:14;10.70;;;2.40;;
76863;SDS011;65834;52.364;9.754;2023-09-19T13:06:52;8.75;;;2.15;;
76863;SDS011;65834;52.364;9.754;2023-09-19T13:09:28;12.15;;;3.03;;
76863;SDS011;65834;52.364;9.754;2023-09-19T13:12:02;9.38;;;2.00;;
76863;SDS011;65834;52.364;9.754;2023-09-19T13:14:34;7.47;;;1.67;;
76863;SDS011;65834;52.364;9.754;2023-09-19T13:17:09;8.40;;;2.25;;
76863;SDS011;65834;52.364;9.754;2023-09-19T13:19:46;8.68;;;2.53;;
76863;SDS011;65834;52.364;9.754;2023-09-19T13:25:13;7.35;;;2.05;;
76863;SDS011;65834;52.364;9.754;2023-09-19T13:27:45;11.63;;;2.30;;
76863;SDS011;65834;52.364;9.754;2023-09-19T13:30:19;9.60;;;2.30;;
76863;SDS011;65834;52.364;9.754;2023-09-19T13:32:52;7.68;;;2.10;;
76863;SDS011;65834;52.364;9.754;2023-09-19T13:35:33;7.50;;;2.20;;
76863;SDS011;65834;52.364;9.754;2023-09-19T13:38:03;7.10;;;1.95;;
76863;SDS011;65834;52.364;9.754;2023-09-19T13:40:36;10.23;;;2.30;;
76863;SDS011;65834;52.364;9.754;2023-09-19T13:45:38;7.43;;;1.90;;
76863;SDS011;65834;52.364;9.754;2023-09-19T13:48:11;10.73;;;2.65;;
76863;SDS011;65834;52.364;9.754;2023-09-19T13:50:41;11.57;;;2.42;;
76863;SDS011;65834;52.364;9.754;2023-09-19T13:53:11;9.43;;;2.55;;
76863;SDS011;65834;52.364;9.754;2023-09-19T13:55:41;9.43;;;1.90;;
76863;SDS011;65834;52.364;9.754;2023-09-19T13:58:11;10.20;;;2.30;;
76863;SDS011;65834;52.364;9.754;2023-09-19T14:00:40;10.70;;;2.20;;
76863;SDS011;65834;52.364;9.754;2023-09-19T14:03:13;11.40;;;2.30;;
76863;SDS011;65834;52.364;9.754;2023-09-19T14:05:42;6.40;;;1.98;;
76863;SDS011;65834;52.364;9.754;2023-09-19T14:08:12;11.68;;;2.40;;
76863;SDS011;65834;52.364;9.754;2023-09-19T14:10:42;7.95;;;1.90;;
76863;SDS011;65834;52.364;9.754;2023-09-19T14:13:11;6.80;;;1.98;;
76863;SDS011;65834;52.364;9.754;2023-09-19T14:15:42;10.80;;;2.50;;
76863;SDS011;65834;52.364;9.754;2023-09-19T14:18:14;8.43;;;1.90;;
76863;SDS011;65834;52.364;9.754;2023-09-19T14:20:45;6.43;;;2.13;;
76863;SDS011;65834;52.364;9.754;2023-09-19T14:23:16;11.02;;;2.38;;
76863;SDS011;65834;52.364;9.754;2023-09-19T14:25:46;8.32;;;2.00;;
76863;SDS011;65834;52.364;9.754;2023-09-19T14:28:15;8.82;;;2.30;;
76863;SDS011;65834;52.364;9.754;2023-09-19T14:30:45;9.95;;;2.22;;
76863;SDS011;65834;52.364;9.754;2023-09-19T14:33:18;9.13;;;2.00;;
76863;SDS011;65834;52.364;9.754;2023-09-19T14:35:48;7.35;;;1.83;;
76863;SDS011;65834;52.364;9.754;2023-09-19T14:38:17;12.05;;;2.13;;
76863;SDS011;65834;52.364;9.754;2023-09-19T14:40:47;8.90;;;2.05;;
76863;SDS011;65834;52.364;9.754;2023-09-19T14:43:18;8.00;;;1.90;;
76863;SDS011;65834;52.364;9.754;2023-09-19T14:45:48;7.55;;;1.70;;
76863;SDS011;65834;52.364;9.754;2023-09-19T14:48:20;11.05;;;2.13;;
76863;SDS011;65834;52.364;9.754;2023-09-19T14:50:52;7.68;;;2.35;;
76863;SDS011;65834;52.364;9.754;2023-09-19T14:53:22;7.22;;;1.83;;
76863;SDS011;65834;52.364;9.754;2023-09-19T14:58:24;6.93;;;1.80;;
76863;SDS011;65834;52.364;9.754;2023-09-19T15:01:01;9.40;;;2.53;;
76863;SDS011;65834;52.364;9.754;2023-09-19T15:03:35;8.25;;;2.00;;
76863;SDS011;65834;52.364;9.754;2023-09-19T15:06:06;9.10;;;2.03;;
76863;SDS011;65834;52.364;9.754;2023-09-19T15:08:41;8.63;;;1.77;;
76863;SDS011;65834;52.364;9.754;2023-09-19T15:13:57;6.35;;;1.90;;
76863;SDS011;65834;52.364;9.754;2023-09-19T15:16:30;6.70;;;2.00;;
76863;SDS011;65834;52.364;9.754;2023-09-19T15:19:02;8.20;;;1.90;;
76863;SDS011;65834;52.364;9.754;2023-09-19T15:21:33;10.70;;;2.03;;
76863;SDS011;65834;52.364;9.754;2023-09-19T15:24:04;11.38;;;2.20;;
76863;SDS011;65834;52.364;9.754;2023-09-19T15:26:36;9.13;;;1.70;;
76863;SDS011;65834;52.364;9.754;2023-09-19T15:29:09;7.25;;;2.13;;
76863;SDS011;65834;52.364;9.754;2023-09-19T15:31:39;8.77;;;1.98;;
76863;SDS011;65834;52.364;9.754;2023-09-19T15:34:12;8.45;;;1.85;;
76863;SDS011;65834;52.364;9.754;2023-09-19T15:36:42;9.00;;;1.83;;
76863;SDS011;65834;52.364;9.754;2023-09-19T15:39:12;9.07;;;1.85;;
76863;SDS011;65834;52.364;9.754;2023-09-19T15:41:44;10.00;;;1.60;;
76863;SDS011;65834;52.364;9.754;2023-09-19T15:44:18;7.93;;;1.90;;
76863;SDS011;65834;52.364;9.754;2023-09-19T15:46:49;9.50;;;1.70;;
76863;SDS011;65834;52.364;9.754;2023-09-19T15:49:21;11.38;;;1.90;;
76863;SDS011;65834;52.364;9.754;2023-09-19T15:51:51;8.18;;;2.03;;
76863;SDS011;65834;52.364;9.754;2023-09-19T15:54:21;5.78;;;1.88;;
76863;SDS011;65834;52.364;9.754;2023-09-19T15:56:51;8.48;;;1.88;;